Observations for Trim Market St
| Time | AQI | Temp °C | Hum % | Pres Pa | CO μg/m³ | H₂S μg/m³ | NO μg/m³ | NO₂ μg/m³ | O₃ μg/m³ | SO₂ μg/m³ | PM1 μg/m³ | PM2.5 μg/m³ | PM10 μg/m³ |
|---|---|---|---|---|---|---|---|---|---|---|---|---|---|
| Friday 21 August 2026 | |||||||||||||
| 14:53 | 3 | 24.1 | 43 | 64,056 | 0 | 35.37 | 1.56 | 110.23 | 75.89 | 0 | 0.71 | 3.8 | 4.18 |
| 14:52 | 3 | 24.2 | 42 | 64,335 | 0.46 | 32.35 | 1.65 | 107.07 | 59.1 | 0 | 0.71 | 4.35 | 5.94 |
| 14:50 | 3 | 24.4 | 42 | 64,515 | 0.35 | 32.41 | 1.62 | 103.92 | 49.79 | 0 | 2.85 | 5.44 | 7.53 |
| 14:49 | 3 | 24.5 | 41 | 64,560 | 0 | 30.77 | 2.61 | 96.66 | 65.34 | 0 | 1.43 | 5.46 | 8.32 |
| 14:48 | 3 | 24.6 | 41 | 64,676 | 0.01 | 33.45 | 4.22 | 131.55 | 32.24 | 0 | 2.14 | 7.06 | 9.12 |
| 14:46 | 3 | 24.9 | 40 | 64,987 | 0 | 33 | 2.13 | 109.79 | 52.47 | 0 | 9.98 | 16.08 | 23.59 |
| 14:42 | 3 | 25.4 | 38 | 65,297 | 0 | 31.15 | 1.58 | 114.89 | 81.11 | 0 | 2.85 | 7.2 | 11.6 |
| 14:39 | 3 | 26.1 | 36 | 65,586 | 0 | 27.75 | 1.45 | 84.96 | 112 | 0 | 0.71 | 3.57 | 3.93 |
| 14:38 | 3 | 26.3 | 36 | 65,615 | 0 | 27.59 | 1.27 | 102.16 | 69.09 | 0 | 0.71 | 4.14 | 5.03 |
| 14:35 | 3 | 27.1 | 34 | 65,713 | 0 | 18.79 | 1.05 | 50.64 | 128.45 | 0 | 0 | 2.6 | 2.86 |
| 14:32 | 3 | 28 | 33 | 65,797 | 0 | 20.58 | 1.14 | 73.44 | 97.37 | 0 | 0 | 2.63 | 2.9 |
| 14:27 | 2 | 29.3 | 31 | 65,858 | 0 | 10.47 | 0.98 | 23.13 | 85.92 | 0 | 0 | 2.73 | 3.01 |
| 14:26 | 2 | 29.5 | 30 | 65,886 | 0 | 16.51 | 0.96 | 38.49 | 142.99 | 0 | 0 | 2.76 | 3.03 |
| 14:25 | 2 | 29.7 | 29 | 65,890 | 0 | 14.17 | 0.95 | 49.68 | 166.47 | 0 | 0 | 2.79 | 3.07 |
| 14:24 | 2 | 29.8 | 29 | 65,886 | 0 | 4.6 | 0.93 | 41.81 | 192.61 | 0 | 0 | 2.83 | 3.11 |
| 14:23 | 2 | 29.8 | 28 | 65,908 | 0 | 0 | 0.88 | 24.16 | 99.56 | 0 | 0 | 2.84 | 3.12 |
| 14:22 | 2 | 29.9 | 29 | 65,912 | 0 | 0 | 0.98 | 16.38 | 79.64 | 0 | 0 | 2.82 | 3.1 |
| 14:21 | 2 | 29.9 | 29 | 65,916 | 0 | 0 | 1.02 | 23.42 | 104.75 | 0 | 0 | 2.8 | 3.08 |
| 14:20 | 2 | 29.7 | 30 | 65,918 | 0 | 0 | 1.14 | 18.54 | 80.9 | 0 | 0 | 2.78 | 3.06 |
| 14:19 | 2 | 29.5 | 30 | 65,896 | 0 | 0 | 1.2 | 20.61 | 86.19 | 0 | 0 | 2.77 | 3.04 |